Gibsonville, North Carolina
Current Conditions -  °F | °C
As of 6:54 AM on Sunday 21 Dec 2014 (Local Time) from KBUY Reporting Station
Overcast Overcast  
Wind Chill: 38°   Ceiling: 2600
Heat Index: 38°   Visibility: 7mi
Dew Point: 34°   Wind: 0mph
Humidity: 86%   Direction: NA
Pressure: 30.28"   Gusts: NA
Location:  36.11°N, 79.54°W
Report Text: KBUY 211154Z AUTO 00000KT 7SM OVC026 03/01 A3028 RMK AO2 SLP256 70001 T00330011 10033 20028 53008
Loading
Personal Weather Stations






























Interactive Weather Map New forecast layout! Learn more

10-Day Weather Forecast

Advertisements
Track Severe Weather on mobile